Time;durP1;ratioP1;P1;durP2;ratioP2;P2;SDS_P1;SDS_P2;PMS_P1;PMS_P2;Temp;Humidity;BMP_temperature;BMP_pressure;BME280_temperature;BME280_humidity;BME280_pressure;Samples;Min_cycle;Max_cycle;Signal;HPM_P1;HPM_P2
2023/07/23 00:01:32;;;;;;;18.92;6.18;;;;;;;;;;5087087;28;20249;-60
2023/07/23 00:03:59;;;;;;;14.05;5.72;;;;;;;;;;5088059;28;20390;-59
2023/07/23 00:06:27;;;;;;;8.35;5.50;;;;;;;;;;5088277;28;20201;-59
2023/07/23 00:08:53;;;;;;;14.70;5.75;;;;;;;;;;5087181;28;20229;-59
2023/07/23 00:11:20;;;;;;;10.25;5.43;;;;;;;;;;5088111;28;20190;-60
2023/07/23 00:13:46;;;;;;;12.13;6.13;;;;;;;;;;5088168;28;20623;-58
2023/07/23 00:16:13;;;;;;;7.20;5.93;;;;;;;;;;5088615;28;20233;-57
2023/07/23 00:18:39;;;;;;;11.35;5.50;;;;;;;;;;5087129;28;20193;-57
2023/07/23 00:21:05;;;;;;;8.02;5.57;;;;;;;;;;5088269;28;20214;-58
2023/07/23 00:23:33;;;;;;;16.33;5.60;;;;;;;;;;5088457;28;20222;-58
2023/07/23 00:26:00;;;;;;;5.93;4.72;;;;;;;;;;5088408;28;20201;-59
2023/07/23 00:28:26;;;;;;;10.27;6.03;;;;;;;;;;5086291;28;20201;-55
2023/07/23 00:30:53;;;;;;;10.40;5.65;;;;;;;;;;5086949;28;20190;-57
2023/07/23 00:33:23;;;;;;;49.10;7.13;;;;;;;;;;5087949;28;20255;-62
2023/07/23 00:35:49;;;;;;;31.20;5.93;;;;;;;;;;5088049;28;20647;-56
2023/07/23 00:38:15;;;;;;;12.15;5.18;;;;;;;;;;5087597;28;20731;-57
2023/07/23 00:40:43;;;;;;;15.15;5.03;;;;;;;;;;5086417;28;20257;-58
2023/07/23 00:43:11;;;;;;;16.10;5.90;;;;;;;;;;5086627;28;20267;-57
2023/07/23 00:45:37;;;;;;;12.85;5.05;;;;;;;;;;5087926;28;20284;-58
2023/07/23 00:48:04;;;;;;;15.20;6.10;;;;;;;;;;5087331;28;20222;-57
2023/07/23 00:50:30;;;;;;;15.60;5.45;;;;;;;;;;5087955;28;20255;-58
2023/07/23 00:52:57;;;;;;;14.50;5.70;;;;;;;;;;5087621;28;20221;-59
2023/07/23 00:55:24;;;;;;;12.00;5.75;;;;;;;;;;5088196;28;20255;-59
2023/07/23 00:57:51;;;;;;;8.68;5.15;;;;;;;;;;5085101;28;20763;-59
2023/07/23 01:00:18;;;;;;;7.45;5.00;;;;;;;;;;5085853;28;20271;-56
2023/07/23 01:02:44;;;;;;;9.75;5.38;;;;;;;;;;5086563;28;20206;-58
2023/07/23 01:05:11;;;;;;;18.30;6.07;;;;;;;;;;5085674;28;20206;-57
2023/07/23 01:07:38;;;;;;;13.20;5.22;;;;;;;;;;5085829;28;20285;-57
2023/07/23 01:10:05;;;;;;;10.80;4.80;;;;;;;;;;5085581;28;20659;-58
2023/07/23 01:12:32;;;;;;;9.70;5.82;;;;;;;;;;5087494;28;20289;-58
2023/07/23 01:15:03;;;;;;;11.00;5.03;;;;;;;;;;5086769;28;20266;-59
2023/07/23 01:17:30;;;;;;;8.05;6.00;;;;;;;;;;5086562;28;20666;-58
2023/07/23 01:20:01;;;;;;;10.07;5.22;;;;;;;;;;5088892;28;20201;-58
2023/07/23 01:22:28;;;;;;;12.07;5.80;;;;;;;;;;5088518;28;20652;-58
2023/07/23 01:24:55;;;;;;;12.07;5.78;;;;;;;;;;5088871;28;20683;-58
2023/07/23 01:27:21;;;;;;;15.27;6.72;;;;;;;;;;5088241;28;20237;-58
2023/07/23 01:29:48;;;;;;;11.82;5.43;;;;;;;;;;5089570;28;20262;-56
2023/07/23 01:32:14;;;;;;;11.82;6.60;;;;;;;;;;5090644;28;20198;-59
2023/07/23 01:34:41;;;;;;;14.40;5.47;;;;;;;;;;5091188;28;20240;-59
2023/07/23 01:37:07;;;;;;;8.32;4.38;;;;;;;;;;5089358;28;20301;-58
2023/07/23 01:39:35;;;;;;;13.38;5.72;;;;;;;;;;5090570;28;20331;-58
2023/07/23 01:42:01;;;;;;;11.05;5.95;;;;;;;;;;5090817;28;20310;-59
2023/07/23 01:44:28;;;;;;;11.45;6.05;;;;;;;;;;5090130;28;20675;-56
2023/07/23 01:46:54;;;;;;;16.15;6.05;;;;;;;;;;5089226;28;20224;-57
2023/07/23 01:49:21;;;;;;;12.02;6.38;;;;;;;;;;5090305;28;20227;-58
2023/07/23 01:51:47;;;;;;;10.80;6.22;;;;;;;;;;5090704;28;20252;-59
2023/07/23 01:54:14;;;;;;;12.90;5.90;;;;;;;;;;5091016;28;20209;-56
2023/07/23 01:56:41;;;;;;;13.93;5.57;;;;;;;;;;5089435;28;20271;-56
2023/07/23 01:59:08;;;;;;;12.77;6.18;;;;;;;;;;5090781;28;20307;-56
2023/07/23 02:01:35;;;;;;;15.43;5.78;;;;;;;;;;5090805;28;20221;-57
2023/07/23 02:04:01;;;;;;;19.05;6.47;;;;;;;;;;5091241;28;20667;-58
2023/07/23 02:06:28;;;;;;;17.10;5.75;;;;;;;;;;5090151;28;20236;-57
2023/07/23 02:08:54;;;;;;;13.30;5.82;;;;;;;;;;5091967;28;20597;-57
2023/07/23 02:11:21;;;;;;;13.70;4.53;;;;;;;;;;5091282;28;20201;-58
2023/07/23 02:13:48;;;;;;;13.80;5.85;;;;;;;;;;5089313;28;20251;-58
2023/07/23 02:16:18;;;;;;;11.90;5.63;;;;;;;;;;5090411;28;20225;-65
2023/07/23 02:18:44;;;;;;;11.40;5.55;;;;;;;;;;5095201;28;20201;-64
2023/07/23 02:21:11;;;;;;;12.95;6.10;;;;;;;;;;5094397;28;20750;-64
2023/07/23 02:23:37;;;;;;;11.60;6.00;;;;;;;;;;5096121;28;20194;-64
2023/07/23 02:26:04;;;;;;;14.07;6.53;;;;;;;;;;5093237;28;20229;-63
2023/07/23 02:28:30;;;;;;;15.07;6.43;;;;;;;;;;5098697;28;20236;-64
2023/07/23 02:30:58;;;;;;;10.15;6.18;;;;;;;;;;5103066;28;20267;-64
2023/07/23 02:33:25;;;;;;;14.45;6.07;;;;;;;;;;5094522;28;20581;-64
2023/07/23 02:35:51;;;;;;;13.82;6.35;;;;;;;;;;5093912;28;20205;-64
2023/07/23 02:38:18;;;;;;;19.23;6.65;;;;;;;;;;5094987;28;20249;-64
2023/07/23 02:40:44;;;;;;;15.15;7.32;;;;;;;;;;5094631;28;20329;-66
2023/07/23 02:43:12;;;;;;;12.27;6.25;;;;;;;;;;5094065;28;20198;-65
2023/07/23 02:45:38;;;;;;;10.32;7.30;;;;;;;;;;5092223;28;20202;-64
2023/07/23 02:48:06;;;;;;;12.75;7.65;;;;;;;;;;5093489;28;20290;-65
2023/07/23 02:50:33;;;;;;;12.65;7.40;;;;;;;;;;5093319;28;20202;-66
2023/07/23 02:52:59;;;;;;;12.60;7.53;;;;;;;;;;5093424;28;20733;-63
2023/07/23 02:55:26;;;;;;;15.77;8.20;;;;;;;;;;5091709;28;20205;-65
2023/07/23 02:57:52;;;;;;;13.27;7.93;;;;;;;;;;5092171;28;20233;-65
2023/07/23 03:00:19;;;;;;;12.95;9.52;;;;;;;;;;5093111;28;20208;-65
2023/07/23 03:02:45;;;;;;;13.23;8.32;;;;;;;;;;5093659;28;20239;-65
2023/07/23 03:05:13;;;;;;;12.93;10.13;;;;;;;;;;5093614;28;20232;-63
2023/07/23 03:07:40;;;;;;;9.77;8.68;;;;;;;;;;5094916;28;20285;-63
2023/07/23 03:10:07;;;;;;;10.75;9.73;;;;;;;;;;5094230;28;20215;-63
2023/07/23 03:12:34;;;;;;;10.63;9.55;;;;;;;;;;5092153;28;20710;-63
2023/07/23 03:15:00;;;;;;;14.55;9.32;;;;;;;;;;5091413;28;20250;-63
2023/07/23 03:17:27;;;;;;;19.60;10.63;;;;;;;;;;5091921;28;20728;-65
2023/07/23 03:19:53;;;;;;;12.75;11.27;;;;;;;;;;5091359;28;20752;-63
2023/07/23 03:22:21;;;;;;;14.70;9.88;;;;;;;;;;5090938;28;20210;-64
2023/07/23 03:24:47;;;;;;;14.70;10.32;;;;;;;;;;5089978;28;20701;-66
2023/07/23 03:27:14;;;;;;;12.85;9.23;;;;;;;;;;5091104;28;20659;-64
2023/07/23 03:29:40;;;;;;;14.65;10.95;;;;;;;;;;5092302;28;20253;-64
2023/07/23 03:32:07;;;;;;;15.60;10.93;;;;;;;;;;5092982;28;20255;-64
2023/07/23 03:34:33;;;;;;;17.20;11.98;;;;;;;;;;5091645;28;20205;-64
2023/07/23 03:37:00;;;;;;;10.82;9.88;;;;;;;;;;5092341;28;20209;-65
2023/07/23 03:39:28;;;;;;;15.32;10.40;;;;;;;;;;5090960;28;20241;-65
2023/07/23 03:41:54;;;;;;;11.52;10.32;;;;;;;;;;5092015;28;20741;-65
2023/07/23 03:44:20;;;;;;;11.63;10.25;;;;;;;;;;5091334;28;20581;-65
2023/07/23 03:47:01;;;;;;;15.43;9.50;;;;;;;;;;5092493;28;20240;-64
2023/07/23 03:49:28;;;;;;;9.85;8.93;;;;;;;;;;5093295;28;20231;-65
2023/07/23 03:51:54;;;;;;;15.88;9.45;;;;;;;;;;5092535;28;20734;-65
2023/07/23 03:54:20;;;;;;;13.30;8.50;;;;;;;;;;5092539;28;20229;-64
2023/07/23 03:56:48;;;;;;;14.63;8.75;;;;;;;;;;5092190;28;20259;-64
2023/07/23 03:59:15;;;;;;;10.90;9.65;;;;;;;;;;5091635;28;20584;-65
2023/07/23 04:01:41;;;;;;;16.23;9.73;;;;;;;;;;5097956;28;20257;-65
2023/07/23 04:04:08;;;;;;;11.38;9.00;;;;;;;;;;5098010;28;20204;-65
2023/07/23 04:06:34;;;;;;;12.13;9.18;;;;;;;;;;5093993;28;20236;-65
2023/07/23 04:09:00;;;;;;;14.52;9.57;;;;;;;;;;5098419;28;20286;-65
2023/07/23 04:11:27;;;;;;;11.43;10.27;;;;;;;;;;5092057;28;20566;-66
2023/07/23 04:13:55;;;;;;;15.77;9.43;;;;;;;;;;5091895;28;20201;-65
2023/07/23 04:16:21;;;;;;;13.15;9.68;;;;;;;;;;5092078;28;20230;-65
2023/07/23 04:18:48;;;;;;;11.18;9.60;;;;;;;;;;5091350;28;20233;-65
2023/07/23 04:21:14;;;;;;;12.23;9.68;;;;;;;;;;5091400;28;20272;-66
2023/07/23 04:23:41;;;;;;;15.40;11.40;;;;;;;;;;5091407;28;20198;-65
2023/07/23 04:26:07;;;;;;;10.15;9.07;;;;;;;;;;5091103;28;20719;-66
2023/07/23 04:28:34;;;;;;;14.85;10.23;;;;;;;;;;5092051;28;20233;-66
2023/07/23 04:31:01;;;;;;;12.10;10.77;;;;;;;;;;5091536;28;20236;-65
2023/07/23 04:33:28;;;;;;;10.95;9.90;;;;;;;;;;5091486;28;20616;-66
2023/07/23 04:35:54;;;;;;;16.80;10.15;;;;;;;;;;5091017;28;20650;-66
2023/07/23 04:38:21;;;;;;;10.80;9.80;;;;;;;;;;5090514;28;20253;-65
2023/07/23 04:40:47;;;;;;;11.55;10.05;;;;;;;;;;5091214;28;20209;-65
2023/07/23 04:43:14;;;;;;;16.35;10.52;;;;;;;;;;5095666;28;20280;-65
2023/07/23 04:45:40;;;;;;;11.23;10.30;;;;;;;;;;5090448;28;20233;-65
2023/07/23 04:48:10;;;;;;;15.15;10.15;;;;;;;;;;5089988;28;20679;-66
2023/07/23 04:50:37;;;;;;;17.45;10.13;;;;;;;;;;5090819;28;20679;-65
2023/07/23 04:53:03;;;;;;;11.57;10.23;;;;;;;;;;5090516;28;20271;-65
2023/07/23 04:55:29;;;;;;;12.15;10.80;;;;;;;;;;5099990;28;20255;-66
2023/07/23 04:57:56;;;;;;;11.15;10.05;;;;;;;;;;5089297;28;20210;-65
2023/07/23 05:00:23;;;;;;;11.63;9.05;;;;;;;;;;5088763;28;20205;-64
2023/07/23 05:02:49;;;;;;;14.13;9.55;;;;;;;;;;5089067;28;20225;-65
2023/07/23 05:05:17;;;;;;;13.40;9.90;;;;;;;;;;5089402;28;20205;-66
2023/07/23 05:07:44;;;;;;;9.60;8.68;;;;;;;;;;5102922;28;20221;-65
2023/07/23 05:10:10;;;;;;;11.02;9.90;;;;;;;;;;5090562;28;20662;-66
2023/07/23 05:12:38;;;;;;;10.35;9.30;;;;;;;;;;5091997;28;20197;-65
2023/07/23 05:15:11;;;;;;;10.77;9.68;;;;;;;;;;5090697;28;20292;-65
2023/07/23 05:17:38;;;;;;;12.35;9.55;;;;;;;;;;5090734;28;20325;-64
2023/07/23 05:20:06;;;;;;;11.32;9.07;;;;;;;;;;5088529;28;20201;-64
2023/07/23 05:22:34;;;;;;;11.05;9.95;;;;;;;;;;5088230;28;20221;-64
2023/07/23 05:25:00;;;;;;;11.15;9.77;;;;;;;;;;5089265;28;20233;-64
2023/07/23 05:27:27;;;;;;;10.32;9.32;;;;;;;23.25;100.00;56616.03;5088688;28;20286;-64
2023/07/23 05:29:53;;;;;;;10.77;9.68;;;;;;;;;;5090046;28;20247;-66
2023/07/23 05:32:20;;;;;;;12.95;8.27;;;;;;;;;;5090433;28;20555;-66
2023/07/23 05:34:46;;;;;;;10.02;9.10;;;;;;;;;;5090551;28;20240;-65
2023/07/23 05:37:13;;;;;;;13.98;10.23;;;;;;;;;;5089739;28;20679;-65
2023/07/23 05:39:40;;;;;;;11.63;9.02;;;;;;;;;;5089812;28;20229;-66
2023/07/23 05:42:07;;;;;;;15.00;12.88;;;;;;;;;;5090460;28;20221;-65
2023/07/23 05:44:33;;;;;;;15.35;11.30;;;;;;;;;;5089831;28;20244;-65
2023/07/23 05:47:00;;;;;;;16.00;10.07;;;;;;;;;;5090203;28;20237;-63
2023/07/23 05:49:26;;;;;;;12.20;9.75;;;;;;;;;;5089539;28;20233;-66
2023/07/23 05:51:53;;;;;;;15.80;10.63;;;;;;;;;;5092253;28;20776;-64
2023/07/23 05:54:19;;;;;;;14.30;9.90;;;;;;;;;;5094840;28;20218;-63
2023/07/23 05:56:47;;;;;;;11.05;9.45;;;;;;;;;;5094624;28;20201;-65
2023/07/23 05:59:14;;;;;;;12.10;9.63;;;;;;;;;;5094342;28;20271;-64
2023/07/23 06:01:40;;;;;;;11.02;9.90;;;;;;;;;;5094330;28;20201;-64
2023/07/23 06:04:07;;;;;;;12.55;8.48;;;;;;;;;;5094464;28;20321;-64
2023/07/23 06:06:33;;;;;;;12.20;9.63;;;;;;;;;;5094496;28;20202;-65
2023/07/23 06:09:00;;;;;;;9.75;8.77;;;;;;;32.51;nan;95341.97;5093133;28;20248;-63
2023/07/23 06:11:27;;;;;;;10.45;8.95;;;;;;;33.81;nan;95341.28;5094792;28;20201;-66
2023/07/23 06:13:55;;;;;;;11.88;8.90;;;;;;;35.79;nan;95329.38;5094295;28;20198;-66
2023/07/23 06:16:21;;;;;;;12.63;8.65;;;;;;;38.05;nan;95326.06;5085336;28;20205;-66
2023/07/23 06:18:48;;;;;;;14.30;8.45;;;;;;;40.05;nan;95322.72;5094364;28;20198;-66
2023/07/23 06:21:15;;;;;;;9.13;7.20;;;;;;;41.90;nan;95326.50;5094591;28;20237;-66
2023/07/23 06:23:41;;;;;;;11.32;7.38;;;;;;;43.27;nan;95304.59;5094277;28;20256;-66
2023/07/23 06:26:08;;;;;;;8.07;7.32;;;;;;;44.38;nan;95311.06;5094204;28;20205;-66
2023/07/23 06:28:35;;;;;;;9.57;7.13;;;;;;;45.44;nan;95312.78;5093454;28;20198;-67
2023/07/23 06:31:03;;;;;;;11.40;7.70;;;;;;;46.12;nan;95302.75;5094136;28;20616;-65
2023/07/23 06:33:29;;;;;;;7.07;6.47;;;;;;;46.68;nan;95310.84;5091126;28;20281;-65
2023/07/23 06:35:56;;;;;;;7.03;6.47;;;;;;;47.41;nan;95303.09;5089486;28;20237;-66
2023/07/23 06:38:23;;;;;;;8.93;6.15;;;;;;;48.22;nan;95302.63;5099516;28;20789;-66
2023/07/23 06:40:54;;;;;;;10.90;6.78;;;;;;;48.49;nan;95301.31;5097343;28;20593;-66
2023/07/23 06:43:22;;;;;;;8.98;6.65;;;;;;;48.37;nan;95286.31;5097584;28;20282;-66
2023/07/23 06:45:49;;;;;;;6.65;6.25;;;;;;;48.24;nan;95300.47;5092630;28;20290;-66
2023/07/23 06:48:19;;;;;;;7.43;6.00;;;;;;;47.95;nan;95297.69;5093368;28;20666;-66
2023/07/23 06:50:46;;;;;;;8.73;6.30;;;;;;;;;;5093694;28;20240;-66
2023/07/23 06:53:13;;;;;;;8.10;6.00;;;;;;;47.89;nan;95304.19;5098858;27;20260;-66
2023/07/23 06:55:58;;;;;;;6.40;5.90;;;;;;;47.96;nan;95293.09;5091585;28;20678;-65
2023/07/23 06:58:25;;;;;;;6.45;5.88;;;;;;;48.23;nan;95312.31;5088268;28;20647;-66
2023/07/23 07:00:52;;;;;;;6.40;5.65;;;;;;;48.06;nan;95303.78;5091154;28;20217;-66
2023/07/23 07:03:20;;;;;;;6.25;5.75;;;;;;;48.04;nan;95295.19;5089890;28;20253;-69
2023/07/23 07:05:47;;;;;;;6.07;5.78;;;;;;;48.45;nan;95305.66;5091249;28;20236;-69
2023/07/23 07:08:13;;;;;;;7.65;6.57;;;;;;;48.78;nan;95315.59;5091401;28;20711;-68
2023/07/23 07:10:40;;;;;;;6.60;5.60;;;;;;;49.20;nan;95317.63;5092478;28;20204;-67
2023/07/23 07:13:07;;;;;;;5.50;5.10;;;;;;;49.71;nan;95317.78;5091386;28;20706;-71
2023/07/23 07:15:33;;;;;;;5.63;5.32;;;;;;;50.08;nan;95320.78;5095594;28;20348;-69
2023/07/23 07:18:00;;;;;;;7.80;6.05;;;;;;;49.86;nan;95313.25;5096030;28;20648;-68
2023/07/23 07:20:28;;;;;;;5.38;4.97;;;;;;;50.66;nan;95321.22;5097537;28;20236;-66
2023/07/23 07:22:55;;;;;;;4.90;4.55;;;;;;;50.90;nan;95338.09;5090978;28;20322;-66
2023/07/23 07:25:21;;;;;;;5.93;5.13;;;;;;;51.23;nan;95324.50;5090868;28;20225;-68
2023/07/23 07:27:48;;;;;;;5.65;5.25;;;;;;;51.31;nan;95315.66;5091485;28;20237;-66
2023/07/23 07:30:15;;;;;;;5.55;5.15;;;;;;;51.04;nan;95328.09;5089940;28;20225;-66
2023/07/23 07:32:41;;;;;;;5.07;4.57;;;;;;;51.54;nan;95309.19;5091087;28;20225;-67
2023/07/23 07:35:09;;;;;;;5.63;5.13;;;;;;;51.91;nan;95310.03;5092774;28;20266;-67
2023/07/23 07:37:37;;;;;;;6.32;5.45;;;;;;;51.72;nan;95314.84;5092122;28;20205;-66
2023/07/23 07:40:04;;;;;;;5.65;5.22;;;;;;;50.77;nan;95311.78;5092090;28;20232;-66
2023/07/23 07:42:31;;;;;;;5.43;5.03;;;;;;;50.97;nan;95314.16;5091475;28;20266;-67
2023/07/23 07:44:58;;;;;;;6.30;5.90;;;;;;;51.04;nan;95306.41;5091460;28;20295;-66
2023/07/23 07:47:24;;;;;;;5.30;5.00;;;;;;;49.93;nan;95309.13;5092410;28;20775;-66
2023/07/23 07:49:52;;;;;;;5.80;5.50;;;;;;;50.39;nan;95303.00;5092812;28;20646;-67
2023/07/23 07:52:19;;;;;;;6.10;5.70;;;;;;;51.07;nan;95310.44;5092534;28;20231;-66
2023/07/23 07:54:47;;;;;;;5.53;5.07;;;;;;;50.79;nan;95315.00;5092429;28;20658;-67
2023/07/23 07:57:14;;;;;;;6.20;5.80;;;;;;;51.34;nan;95296.09;5092276;28;20333;-66
2023/07/23 07:59:41;;;;;;;5.55;5.15;;;;;;;51.49;nan;95306.59;5092638;28;20657;-66
2023/07/23 08:02:10;;;;;;;5.93;5.43;;;;;;;51.26;nan;95296.78;5091594;28;20319;-67
2023/07/23 08:04:37;;;;;;;6.28;5.75;;;;;;;51.03;nan;95304.81;5080124;28;20721;-66
2023/07/23 08:07:04;;;;;;;6.32;5.85;;;;;;;51.68;nan;95293.75;5091523;28;20232;-66
2023/07/23 08:09:32;;;;;;;5.50;5.03;;;;;;;51.99;nan;95306.59;5092073;28;20201;-70
2023/07/23 08:12:02;;;;;;;10.63;5.13;;;;;;;50.95;nan;95305.53;5091461;28;20232;-66
2023/07/23 08:14:30;;;;;;;5.53;5.07;;;;;;;51.40;nan;95302.22;5091318;28;20201;-68
2023/07/23 08:16:57;;;;;;;5.30;5.00;;;;;;;50.84;nan;95306.78;5091126;28;20262;-67
2023/07/23 08:19:25;;;;;;;5.50;4.95;;;;;;;50.60;nan;95306.97;5088835;28;20775;-67
2023/07/23 08:21:52;;;;;;;5.35;5.05;;;;;;;50.79;nan;95315.00;5097184;28;20360;-69
2023/07/23 08:24:19;;;;;;;7.97;5.45;;;;;;;51.02;nan;95303.22;5102485;28;20602;-69
2023/07/23 08:26:49;;;;;;;6.30;5.78;;;;;;;50.92;nan;95308.00;5100960;28;20236;-68
2023/07/23 08:29:20;;;;;;;6.53;5.90;;;;;;;50.40;nan;95311.91;5102138;28;20262;-68
2023/07/23 08:31:48;;;;;;;6.53;5.85;;;;;;;50.47;nan;95301.50;5102388;28;20224;-69
2023/07/23 08:34:16;;;;;;;7.38;5.43;;;;;;;50.57;nan;95306.72;5100866;28;20232;-68
2023/07/23 08:36:44;;;;;;;6.00;5.63;;;;;;;51.13;nan;95311.94;5103020;28;20204;-68
2023/07/23 08:39:11;;;;;;;6.22;5.72;;;;;;;51.29;nan;95296.22;5099323;28;20229;-69
2023/07/23 08:41:54;;;;;;;7.05;6.38;;;;;;;51.88;nan;95297.91;5103364;28;20200;-69
2023/07/23 08:44:52;;;;;;;7.13;6.43;;;;;;;51.49;nan;95292.25;5097230;28;20329;-68
2023/07/23 08:47:22;;;;;;;6.65;5.60;;;;;;;51.54;nan;95301.06;5090968;28;20584;-68
2023/07/23 08:49:50;;;;;;;7.03;6.43;;;;;;;51.73;nan;95279.25;5091265;28;20197;-68
2023/07/23 08:52:19;;;;;;;7.15;5.60;;;;;;;51.88;nan;95297.09;5091016;28;20670;-69
2023/07/23 08:54:47;;;;;;;6.47;5.75;;;;;;;51.15;nan;95293.50;5090159;28;20563;-67
2023/07/23 08:57:13;;;;;;;6.70;6.10;;;;;;;50.85;nan;95297.56;5083060;28;20228;-68
2023/07/23 08:59:43;;;;;;;6.38;5.97;;;;;;;50.31;nan;95304.47;5076173;28;20250;-66
2023/07/23 09:02:12;;;;;;;6.38;5.57;;;;;;;49.90;nan;95298.09;5088705;28;20296;-67
2023/07/23 09:04:38;;;;;;;6.28;5.78;;;;;;;;;;5089030;28;20221;-68
2023/07/23 09:07:10;;;;;;;6.70;6.10;;;;;;;49.28;nan;95286.47;5088410;28;20231;-67
2023/07/23 09:09:37;;;;;;;6.82;6.47;;;;;;;49.10;nan;95316.91;5089519;28;20209;-67
2023/07/23 09:12:04;;;;;;;6.07;5.57;;;;;;;48.74;nan;95298.41;5089120;28;20228;-68
2023/07/23 09:14:41;;;;;;;5.93;5.55;;;;;;;49.09;nan;95312.59;5090470;28;20197;-70
2023/07/23 09:17:16;;;;;;;6.65;6.10;;;;;;;48.56;nan;95301.78;5090333;28;20193;-68
2023/07/23 09:19:43;;;;;;;6.13;5.75;;;;;;;47.70;nan;95298.63;5091136;28;20201;-68
2023/07/23 09:22:10;;;;;;;6.65;6.05;;;;;;;47.15;nan;95298.88;5091269;28;20206;-69
2023/07/23 09:24:36;;;;;;;6.57;6.07;;;;;;;47.00;nan;95297.84;5090697;28;20231;-68
2023/07/23 09:27:04;;;;;;;7.10;6.35;;;;;;;46.15;nan;95312.97;5090474;28;20225;-68
2023/07/23 09:29:35;;;;;;;7.47;6.38;;;;;;;45.60;nan;95317.16;5090478;28;20205;-67
2023/07/23 09:32:03;;;;;;;7.50;6.80;;;;;;;44.71;nan;95314.53;5090904;28;20738;-67
2023/07/23 09:34:31;;;;;;;6.93;6.43;;;;;;;43.82;nan;95307.06;5090679;28;20208;-66
2023/07/23 09:36:57;;;;;;;7.18;6.68;;;;;;;43.23;nan;95298.13;5091143;28;20229;-67
2023/07/23 09:39:26;;;;;;;6.95;6.00;;;;;;;42.51;nan;95307.00;5091454;28;20265;-69
2023/07/23 09:41:53;;;;;;;7.32;6.82;;;;;;;41.61;nan;95313.16;5079151;28;20278;-68
2023/07/23 09:44:25;;;;;;;6.97;6.32;;;;;;;40.69;nan;95304.25;5090226;28;20217;-67
2023/07/23 09:46:52;;;;;;;6.85;6.20;;;;;;;39.79;nan;95297.28;5090491;28;20277;-68
2023/07/23 09:49:24;;;;;;;7.00;6.40;;;;;;;38.66;nan;95304.13;5091338;28;20210;-68
2023/07/23 09:51:53;;;;;;;7.63;6.53;;;;;;;37.60;nan;95304.91;5090753;28;20592;-69
2023/07/23 09:54:21;;;;;;;7.18;6.65;;;;;;;36.72;nan;95307.22;5090267;28;20293;-66
2023/07/23 09:56:50;;;;;;;9.40;7.38;;;;;;;36.00;nan;95313.31;5090565;28;20237;-66
2023/07/23 09:59:18;;;;;;;7.63;6.93;;;;;;;35.50;nan;95311.16;5090111;28;20243;-67
2023/07/23 10:01:44;;;;;;;9.07;7.13;;;;;;;;;;5090346;28;20226;-67
2023/07/23 10:04:12;;;;;;;7.40;6.82;;;;;;;34.98;nan;95265.03;5090459;28;20660;-67
2023/07/23 10:06:40;;;;;;;10.15;6.88;;;;;;;34.70;nan;95309.94;5090845;28;20252;-68
2023/07/23 10:09:09;;;;;;;7.82;7.10;;;;;;;;;;5091350;28;20270;-68
2023/07/23 10:11:36;;;;;;;7.25;6.57;;;;;;;34.28;nan;95306.38;5090828;28;20205;-67
2023/07/23 10:14:02;;;;;;;8.57;6.32;;;;;;;;;;5091015;28;20206;-66
2023/07/23 10:16:34;;;;;;;7.53;6.70;;;;;;;33.83;nan;95312.09;5090566;28;20293;-67
2023/07/23 10:19:04;;;;;;;8.00;7.30;;;;;;;33.36;nan;95300.22;5090419;28;20772;-68
2023/07/23 10:21:31;;;;;;;9.40;7.00;;;;;;;;;;5090053;28;20255;-67
2023/07/23 10:23:58;;;;;;;7.65;7.00;;;;;;;;;;5090269;28;20220;-67
2023/07/23 10:26:27;;;;;;;10.95;7.35;;;;;;;;;;5089689;28;20242;-67
2023/07/23 10:28:57;;;;;;;8.55;7.22;;;;;;;;;;5090638;28;20282;-68
2023/07/23 10:31:24;;;;;;;10.07;7.22;;;;;;;;;;5089878;28;20202;-67
2023/07/23 10:33:51;;;;;;;10.32;7.63;;;;;;;;;;5090342;28;20330;-68
2023/07/23 10:36:18;;;;;;;7.72;7.03;;;;;;;;;;5089648;28;20206;-65
2023/07/23 10:38:44;;;;;;;8.55;7.13;;;;;;;;;;5093567;28;20225;-66
2023/07/23 10:41:11;;;;;;;11.73;9.40;;;;;;;32.67;nan;95278.63;5093531;28;20205;-65
2023/07/23 10:43:44;;;;;;;11.20;7.53;;;;;;;32.69;nan;95303.78;5093598;28;20685;-66
2023/07/23 10:46:11;;;;;;;8.32;7.20;;;;;;;;;;5092864;28;20209;-67
2023/07/23 10:48:41;;;;;;;8.45;7.55;;;;;;;32.45;nan;95254.88;5094063;28;20625;-67
2023/07/23 10:51:09;;;;;;;7.82;7.05;;;;;;;;;;5093071;28;20258;-67
2023/07/23 10:53:38;;;;;;;9.15;7.60;;;;;;;;;;5093839;28;20293;-66
2023/07/23 10:56:22;;;;;;;8.98;7.90;;;;;;;32.36;nan;95307.75;5088663;28;20229;-67
2023/07/23 10:58:50;;;;;;;13.10;7.95;;;;;;;;;;5091986;28;20251;-64
2023/07/23 11:01:20;;;;;;;8.85;6.90;;;;;;;;;;5091088;28;20698;-66
2023/07/23 11:03:48;;;;;;;9.45;8.15;;;;;;;;;;5091393;28;20275;-65
2023/07/23 11:06:25;;;;;;;9.57;8.63;;;;;;;;;;5091075;28;20679;-66
2023/07/23 11:08:52;;;;;;;9.70;8.65;;;;;;;;;;5091982;28;20221;-65
2023/07/23 11:11:21;;;;;;;9.55;8.38;;;;;;;;;;5090962;28;20759;-66
2023/07/23 11:13:48;;;;;;;10.48;7.95;;;;;;;;;;5092246;28;20223;-66
2023/07/23 11:16:16;;;;;;;9.52;8.52;;;;;;;;;;5092822;28;20286;-66
2023/07/23 11:18:44;;;;;;;10.63;9.52;;;;;;;;;;5091748;28;20266;-66
2023/07/23 11:21:14;;;;;;;10.25;9.13;;;;;;;;;;5091354;28;20209;-67
2023/07/23 11:23:40;;;;;;;11.30;10.00;;;;;;;;;;5091258;28;20218;-65
2023/07/23 11:26:07;;;;;;;10.23;9.18;;;;;;;;;;5090890;28;20682;-66
2023/07/23 11:28:33;;;;;;;13.25;10.18;;;;;;;;;;5090878;28;20657;-65
2023/07/23 11:31:00;;;;;;;10.55;8.45;;;;;;;;;;5090979;28;20211;-66
2023/07/23 11:33:30;;;;;;;10.50;8.27;;;;;;;;;;5091887;28;20655;-64
2023/07/23 11:35:56;;;;;;;11.27;10.05;;;;;;;;;;5092741;28;20243;-68
2023/07/23 11:38:27;;;;;;;11.73;9.00;;;;;;;;;;5092946;28;20229;-65
2023/07/23 11:40:57;;;;;;;11.10;9.05;;;;;;;;;;5092884;28;20705;-66
2023/07/23 11:43:23;;;;;;;16.73;10.05;;;;;;;;;;5092638;28;20197;-67
2023/07/23 11:45:51;;;;;;;16.80;11.52;;;;;;;;;;5092396;28;20233;-67
2023/07/23 11:48:18;;;;;;;17.55;12.35;;;;;;;;;;5091901;28;20209;-67
2023/07/23 11:50:47;;;;;;;14.32;12.35;;;;;;;;;;5092506;28;20201;-66
2023/07/23 11:53:14;;;;;;;17.05;12.32;;;;;;;;;;5092250;28;20229;-68
2023/07/23 11:55:41;;;;;;;16.77;13.23;;;;;;;;;;5092764;28;20636;-67
2023/07/23 11:58:07;;;;;;;17.75;12.32;;;;;;;;;;5092205;28;20225;-67
2023/07/23 12:00:35;;;;;;;14.45;11.40;;;;;;;;;;5092844;28;20270;-68
2023/07/23 12:03:03;;;;;;;17.90;11.85;;;;;;;;;;5092598;28;20266;-68
2023/07/23 12:05:30;;;;;;;16.02;10.82;;;;;;;;;;5092560;28;20222;-66
2023/07/23 12:07:58;;;;;;;15.38;12.18;;;;;;;;;;5092294;28;20240;-69
2023/07/23 12:10:26;;;;;;;14.35;12.88;;;;;;;;;;5091678;28;20244;-67
2023/07/23 12:12:52;;;;;;;19.75;13.38;;;;;;;;;;5092480;28;20229;-68
2023/07/23 12:15:19;;;;;;;15.07;12.75;;;;;;;;;;5093311;28;20866;-67
2023/07/23 12:17:45;;;;;;;19.20;12.85;;;;;;;;;;5111027;28;20228;-66
2023/07/23 12:20:15;;;;;;;19.90;13.27;;;;;;;;;;5110015;28;20200;-67
2023/07/23 12:22:51;;;;;;;13.77;12.32;;;;;;;;;;5111132;28;20201;-67
2023/07/23 12:25:19;;;;;;;16.33;13.82;;;;;;;;;;5110162;28;20657;-67
2023/07/23 12:27:46;;;;;;;15.60;13.15;;;;;;;;;;5110842;28;20239;-68
2023/07/23 12:30:13;;;;;;;15.40;13.05;;;;;;;;;;5109835;28;20269;-68
2023/07/23 12:32:39;;;;;;;16.33;13.73;;;;;;;;;;5110565;28;20630;-68
2023/07/23 12:35:06;;;;;;;16.65;14.25;;;;;;;;;;5109763;28;20201;-68
2023/07/23 12:37:34;;;;;;;15.20;13.52;;;;;;;;;;5110573;28;20245;-67
2023/07/23 12:40:04;;;;;;;19.63;14.75;;;;;;;;;;5109270;28;20717;-68
2023/07/23 12:42:32;;;;;;;15.07;13.48;;;;;;;;;;5109472;28;20216;-66
2023/07/23 12:44:58;;;;;;;20.58;13.35;;;;;;;;;;5102606;28;20247;-67
2023/07/23 12:47:26;;;;;;;16.02;12.55;;;;;;;31.49;nan;95262.56;5091734;28;20213;-67
2023/07/23 12:49:54;;;;;;;14.70;12.25;;;;;;;;;;5090727;28;20654;-66
2023/07/23 12:52:21;;;;;;;14.38;11.95;;;;;;;;;;5090771;28;20662;-66
2023/07/23 12:54:47;;;;;;;16.63;13.02;;;;;;;;;;5091212;28;20190;-67
2023/07/23 12:57:14;;;;;;;15.98;12.27;;;;;;;;;;5090965;28;20213;-66
2023/07/23 12:59:43;;;;;;;13.07;11.70;;;;;;;;;;5076621;28;20259;-65
2023/07/23 13:02:09;;;;;;;19.20;12.88;;;;;;;;;;5089251;28;20701;-65
2023/07/23 13:04:37;;;;;;;14.30;11.63;;;;;;;;;;5089192;28;20218;-66
2023/07/23 13:07:03;;;;;;;13.63;11.63;;;;;;;;;;5089159;28;20205;-68
2023/07/23 13:09:30;;;;;;;15.50;12.30;;;;;;;;;;5089559;28;20236;-67
2023/07/23 13:11:56;;;;;;;12.15;10.95;;;;;;;;;;5089765;28;20202;-66
2023/07/23 13:14:23;;;;;;;14.80;11.10;;;;;;;;;;5090131;28;20262;-66
2023/07/23 13:16:51;;;;;;;11.77;10.57;;;;;;;;;;5079947;28;20206;-66
2023/07/23 13:19:17;;;;;;;15.13;11.35;;;;;;;;;;5093057;28;20212;-66
2023/07/23 13:21:44;;;;;;;12.77;11.18;;;;;;;;;;5090764;28;20197;-66
2023/07/23 13:24:11;;;;;;;11.30;10.10;;;;;;;;;;5095390;28;20291;-65
2023/07/23 13:26:38;;;;;;;14.15;10.48;;;;;;;;;;5092505;28;20698;-65
2023/07/23 13:29:04;;;;;;;12.73;9.13;;;;;;;;;;5088896;28;20229;-65
2023/07/23 13:31:31;;;;;;;11.77;9.98;;;;;;;;;;5089784;28;20228;-66
2023/07/23 13:33:58;;;;;;;10.30;9.20;;;;;;;;;;5090995;28;20270;-67